Time;durP1;ratioP1;P1;durP2;ratioP2;P2;SDS_P1;SDS_P2;PMS_P1;PMS_P2;Temp;Humidity;BMP_temperature;BMP_pressure;BME280_temperature;BME280_humidity;BME280_pressure;Samples;Min_cycle;Max_cycle;Signal;HPM_P1;HPM_P2
2021/09/27 00:01:04;;;;;;;13.83;10.17;;;;;;;;;;5117397;28;20251;-63
2021/09/27 00:03:33;;;;;;;13.77;8.97;;;;;;;;;;5117641;28;20205;-63
2021/09/27 00:06:01;;;;;;;10.43;8.50;;;;;;;;;;5117488;28;20303;-63
2021/09/27 00:08:29;;;;;;;12.07;8.73;;;;;;;;;;5116959;28;20309;-63
2021/09/27 00:10:59;;;;;;;13.57;9.50;;;;;;;;;;5117637;28;20243;-63
2021/09/27 00:13:29;;;;;;;17.50;9.80;;;;;;;;;;5117268;28;20631;-63
2021/09/27 00:15:58;;;;;;;13.53;9.57;;;;;;;;;;5117504;28;20280;-63
2021/09/27 00:18:27;;;;;;;12.33;9.00;;;;;;;;;;5121004;28;20292;-63
2021/09/27 00:20:56;;;;;;;12.53;9.30;;;;;;;;;;5121147;28;20286;-63
2021/09/27 00:23:25;;;;;;;14.20;9.67;;;;;;;;;;5121075;28;20243;-63
2021/09/27 00:25:53;;;;;;;13.17;9.13;;;;;;;;;;5121246;28;20232;-63
2021/09/27 00:28:22;;;;;;;16.17;9.37;;;;;;;;;;5121156;28;20240;-63
2021/09/27 00:30:50;;;;;;;12.80;9.27;;;;;;;;;;5120919;28;20204;-64
2021/09/27 00:33:20;;;;;;;15.23;10.07;;;;;;;;;;5121077;28;20205;-63
2021/09/27 00:35:49;;;;;;;14.10;9.40;;;;;;;;;;5120885;28;20321;-63
2021/09/27 00:38:18;;;;;;;12.70;8.70;;;;;;;;;;5120442;28;20227;-63
2021/09/27 00:40:47;;;;;;;17.40;9.10;;;;;;;;;;5120658;28;20349;-63
2021/09/27 00:43:16;;;;;;;15.70;9.43;;;;;;;;;;5120680;28;20287;-63
2021/09/27 00:45:46;;;;;;;12.47;8.77;;;;;;;;;;5120698;28;20267;-63
2021/09/27 00:48:14;;;;;;;15.00;10.03;;;;;;;;;;5120852;28;20212;-63
2021/09/27 00:50:44;;;;;;;13.03;8.87;;;;;;;;;;5120647;28;20247;-63
2021/09/27 00:53:16;;;;;;;16.40;9.57;;;;;;;;;;5120074;28;20632;-63
2021/09/27 00:55:44;;;;;;;15.00;9.23;;;;;;;;;;5120418;28;20221;-63
2021/09/27 00:58:13;;;;;;;17.90;9.33;;;;;;;;;;5120335;28;20284;-63
2021/09/27 01:00:42;;;;;;;13.53;8.90;;;;;;;;;;5120116;28;20288;-63
2021/09/27 01:03:10;;;;;;;14.50;8.70;;;;;;;;;;5120261;28;20219;-64
2021/09/27 01:05:42;;;;;;;15.57;8.50;;;;;;;;;;5120060;28;20255;-63
2021/09/27 01:08:19;;;;;;;9.37;7.37;;;;;;;;;;5119836;27;20259;-64
2021/09/27 01:10:58;;;;;;;11.87;7.07;;;;;;;;;;5120142;28;20604;-63
2021/09/27 01:13:53;;;;;;;13.60;7.87;;;;;;;;;;5120185;28;20216;-63
2021/09/27 01:16:25;;;;;;;9.33;6.33;;;;;;;;;;5083772;28;20225;-63
2021/09/27 01:19:00;;;;;;;11.03;6.53;;;;;;;;;;5119870;28;20205;-62
2021/09/27 01:21:36;;;;;;;9.30;6.20;;;;;;;;;;5119864;28;20200;-63
2021/09/27 01:24:22;;;;;;;10.00;6.43;;;;;;;;;;5119640;28;20264;-63
2021/09/27 01:26:59;;;;;;;9.80;6.07;;;;;;;;;;5106413;28;20232;-63
2021/09/27 01:29:51;;;;;;;10.07;6.60;;;;;;;;;;5119900;28;20228;-63
2021/09/27 01:32:32;;;;;;;11.50;6.33;;;;;;;;;;5104388;28;20752;-64
2021/09/27 01:35:09;;;;;;;9.93;5.83;;;;;;;;;;5119887;28;20261;-63
2021/09/27 01:37:41;;;;;;;8.57;5.90;;;;;;;;;;5119194;28;20255;-63
2021/09/27 01:40:11;;;;;;;7.90;5.67;;;;;;;;;;5119447;28;20641;-63
2021/09/27 01:42:43;;;;;;;8.60;5.97;;;;;;;;;;5119409;28;20287;-64
2021/09/27 01:45:13;;;;;;;8.03;5.80;;;;;;;;;;5119514;28;20248;-63
2021/09/27 01:47:46;;;;;;;7.30;5.67;;;;;;;;;;5119308;28;20683;-63
2021/09/27 01:50:17;;;;;;;10.17;6.03;;;;;;;;;;5119284;28;20239;-63
2021/09/27 01:52:46;;;;;;;8.40;6.23;;;;;;;;;;5105726;28;20289;-64
2021/09/27 01:55:18;;;;;;;7.73;4.87;;;;;;;;;;5119253;28;20311;-63
2021/09/27 01:57:50;;;;;;;7.57;5.70;;;;;;;;;;5119180;28;20677;-63
2021/09/27 02:00:20;;;;;;;12.53;6.53;;;;;;;;;;5119032;28;20275;-63
2021/09/27 02:02:52;;;;;;;10.67;6.23;;;;;;;;;;5119381;28;20236;-63
2021/09/27 02:05:24;;;;;;;6.30;5.50;;;;;;;;;;5118933;28;20307;-63
2021/09/27 02:07:56;;;;;;;9.70;6.07;;;;;;;;;;5118602;28;20271;-63
2021/09/27 02:10:26;;;;;;;9.10;6.23;;;;;;;;;;5119269;28;20204;-63
2021/09/27 02:12:58;;;;;;;10.97;6.20;;;;;;;;;;5119409;28;20212;-63
2021/09/27 02:15:29;;;;;;;6.43;4.83;;;;;;;;;;5118551;28;20311;-63
2021/09/27 02:18:02;;;;;;;6.53;5.47;;;;;;;;;;5118562;28;20283;-63
2021/09/27 02:20:31;;;;;;;7.40;5.37;;;;;;;;;;5119107;28;20235;-63
2021/09/27 02:23:01;;;;;;;7.53;5.80;;;;;;;;;;5118422;28;20634;-63
2021/09/27 02:25:33;;;;;;;11.03;4.60;;;;;;;;;;5118848;28;20280;-63
2021/09/27 02:28:03;;;;;;;6.03;4.30;;;;;;;;;;5118526;28;20244;-64
2021/09/27 02:30:43;;;;;;;6.47;4.80;;;;;;;;;;5118888;28;20204;-64
2021/09/27 02:33:15;;;;;;;5.37;4.37;;;;;;;;;;5118773;28;20330;-63
2021/09/27 02:35:46;;;;;;;7.17;4.93;;;;;;;;;;5118771;28;20255;-63
2021/09/27 02:38:16;;;;;;;7.83;5.03;;;;;;;;;;5118374;28;20266;-63
2021/09/27 02:40:47;;;;;;;6.40;5.60;;;;;;;;;;5118164;28;20205;-63
2021/09/27 02:43:15;;;;;;;8.73;5.37;;;;;;;;;;5118682;28;20243;-64
2021/09/27 02:45:44;;;;;;;8.97;5.30;;;;;;;;;;5118347;28;20591;-64
2021/09/27 02:48:18;;;;;;;8.80;5.60;;;;;;;;;;5118653;28;20198;-65
2021/09/27 02:50:48;;;;;;;6.63;5.13;;;;;;;;;;5118365;28;20639;-65
2021/09/27 02:53:17;;;;;;;12.03;7.10;;;;;;;;;;5118978;27;20228;-62
2021/09/27 02:55:52;;;;;;;10.83;7.47;;;;;;;;;;5118112;28;20213;-62
2021/09/27 02:58:27;;;;;;;9.63;7.80;;;;;;;;;;5115654;28;20220;-62
2021/09/27 03:01:00;;;;;;;14.30;8.57;;;;;;;;;;5111983;28;20260;-63
2021/09/27 03:03:47;;;;;;;10.97;7.80;;;;;;;;;;5106175;28;20215;-63
2021/09/27 03:06:19;;;;;;;12.17;7.77;;;;;;;;;;5106061;28;20236;-63
2021/09/27 03:09:02;;;;;;;11.47;8.20;;;;;;;;;;5102826;28;20261;-63
2021/09/27 03:11:41;;;;;;;10.20;7.13;;;;;;;;;;5106673;28;20201;-63
2021/09/27 03:14:14;;;;;;;9.70;6.90;;;;;;;;;;5101192;28;20256;-63
2021/09/27 03:16:50;;;;;;;8.97;7.30;;;;;;;;;;5106925;28;20231;-63
2021/09/27 03:19:27;;;;;;;10.10;7.67;;;;;;;;;;5104537;28;20634;-63
2021/09/27 03:21:58;;;;;;;9.73;6.97;;;;;;;;;;5102296;28;20228;-63
2021/09/27 03:24:41;;;;;;;10.50;7.03;;;;;;;;;;5105090;28;20243;-63
2021/09/27 03:27:13;;;;;;;10.33;6.90;;;;;;;;;;5105195;28;20228;-63
2021/09/27 03:29:47;;;;;;;8.57;6.77;;;;;;;;;;5104931;28;20224;-64
2021/09/27 03:32:22;;;;;;;11.20;7.63;;;;;;;;;;5104683;28;20256;-64
2021/09/27 03:34:56;;;;;;;13.20;7.40;;;;;;;;;;5104553;28;20645;-61
2021/09/27 03:37:30;;;;;;;10.37;7.97;;;;;;;;;;5104663;28;20310;-63
2021/09/27 03:40:08;;;;;;;11.90;7.87;;;;;;;;;;5098609;28;20208;-63
2021/09/27 03:42:41;;;;;;;12.87;8.63;;;;;;;;;;5104504;28;20279;-62
2021/09/27 03:45:12;;;;;;;11.63;8.03;;;;;;;;;;5104378;28;20649;-62
2021/09/27 03:47:44;;;;;;;12.70;8.20;;;;;;;;;;5104540;28;20214;-63
2021/09/27 03:50:17;;;;;;;13.33;8.60;;;;;;;;;;5103750;28;20201;-63
2021/09/27 03:52:47;;;;;;;16.77;9.63;;;;;;;;;;5105181;28;20197;-64
2021/09/27 03:55:18;;;;;;;16.40;9.13;;;;;;;;;;5107770;28;20237;-63
2021/09/27 03:57:48;;;;;;;14.33;9.23;;;;;;;;;;5106136;28;20259;-62
2021/09/27 04:00:20;;;;;;;15.60;9.87;;;;;;;;;;5109011;28;20296;-64
2021/09/27 04:02:53;;;;;;;16.13;9.83;;;;;;;;;;5111514;28;20200;-63
2021/09/27 04:05:24;;;;;;;17.97;11.40;;;;;;;;;;5121267;28;20260;-63
2021/09/27 04:07:57;;;;;;;14.80;10.30;;;;;;;;;;5120976;28;20233;-62
2021/09/27 04:10:30;;;;;;;16.03;10.80;;;;;;;;;;5121250;28;20652;-64
2021/09/27 04:13:04;;;;;;;17.40;10.23;;;;;;;;;;5121306;28;20287;-62
2021/09/27 04:15:39;;;;;;;17.33;9.97;;;;;;;;;;5121092;28;20220;-63
2021/09/27 04:18:10;;;;;;;18.97;11.67;;;;;;;;;;5118548;28;20626;-62
2021/09/27 04:20:48;;;;;;;17.53;10.63;;;;;;;;;;5120796;28;20255;-63
2021/09/27 04:23:20;;;;;;;16.13;10.20;;;;;;;;;;5120777;28;20224;-63
2021/09/27 04:25:53;;;;;;;16.27;10.63;;;;;;;;;;5120820;28;20244;-64
2021/09/27 04:28:36;;;;;;;15.03;10.07;;;;;;;;;;5120979;28;20252;-63
2021/09/27 04:31:13;;;;;;;19.07;10.87;;;;;;;;;;5118611;28;20207;-63
2021/09/27 04:33:57;;;;;;;15.83;10.37;;;;;;;;;;5120534;28;20280;-64
2021/09/27 04:36:28;;;;;;;12.43;8.87;;;;;;;;;;5121048;28;20264;-62
2021/09/27 04:38:58;;;;;;;15.57;9.23;;;;;;;;;;5113418;28;20303;-62
2021/09/27 04:41:46;;;;;;;13.67;9.37;;;;;;;;;;5120933;28;20265;-64
2021/09/27 04:44:19;;;;;;;17.00;9.93;;;;;;;;;;5116660;28;20315;-63
2021/09/27 04:46:52;;;;;;;13.03;8.67;;;;;;;;;;5120430;28;20630;-63
2021/09/27 04:49:27;;;;;;;11.70;7.30;;;;;;;;;;5120606;27;20343;-62
2021/09/27 04:52:04;;;;;;;12.17;8.63;;;;;;;;;;5120444;28;20239;-63
2021/09/27 04:54:47;;;;;;;14.27;7.87;;;;;;;;;;5120184;28;20255;-63
2021/09/27 04:57:25;;;;;;;9.97;7.27;;;;;;;;;;5120561;28;20284;-63
2021/09/27 05:00:02;;;;;;;11.23;7.43;;;;;;;;;;5120399;28;20356;-63
2021/09/27 05:02:39;;;;;;;12.03;7.17;;;;;;;;;;5108353;28;20201;-63
2021/09/27 05:05:09;;;;;;;10.97;7.70;;;;;;;;;;5120299;28;20263;-63
2021/09/27 05:07:55;;;;;;;11.40;7.50;;;;;;;;;;5119711;28;20315;-63
2021/09/27 05:10:35;;;;;;;10.97;6.60;;;;;;;;;;5120172;27;20243;-63
2021/09/27 05:13:14;;;;;;;11.93;6.90;;;;;;;;;;5120127;28;20204;-63
2021/09/27 05:16:01;;;;;;;10.67;5.93;;;;;;;;;;5120036;28;20256;-63
2021/09/27 05:18:43;;;;;;;10.23;7.67;;;;;;;;;;5119536;28;20267;-64
2021/09/27 05:21:24;;;;;;;10.60;7.17;;;;;;;;;;5106600;27;20201;-64
2021/09/27 05:23:59;;;;;;;10.30;6.47;;;;;;;;;;5116370;28;20248;-63
2021/09/27 05:26:44;;;;;;;10.60;7.10;;;;;;;;;;5118971;27;20200;-63
2021/09/27 05:29:36;;;;;;;9.23;6.10;;;;;;;;;;5116641;28;20618;-63
2021/09/27 05:32:18;;;;;;;14.77;6.60;;;;;;;;;;5118353;28;20713;-63
2021/09/27 05:34:53;;;;;;;13.67;6.50;;;;;;;;;;5114385;28;20223;-63
2021/09/27 05:37:28;;;;;;;9.60;5.77;;;;;;;;;;5107299;28;20217;-65
2021/09/27 05:40:07;;;;;;;7.40;5.33;;;;;;;;;;5111608;27;20273;-65
2021/09/27 05:42:41;;;;;;;5.67;4.63;;;;;;;;;;5106703;28;20306;-65
2021/09/27 05:45:18;;;;;;;6.73;4.63;;;;;;;;;;5106852;28;20700;-65
2021/09/27 05:47:50;;;;;;;7.03;4.33;;;;;;;;;;5106499;28;20280;-65
2021/09/27 05:50:22;;;;;;;7.23;4.00;;;;;;;;;;5112510;28;20269;-65
2021/09/27 05:52:54;;;;;;;4.03;3.63;;;;;;;;;;5105576;28;20620;-66
2021/09/27 05:55:29;;;;;;;5.47;3.13;;;;;;;;;;5107677;28;20637;-67
2021/09/27 05:57:58;;;;;;;7.03;3.90;;;;;;;;;;5107690;28;20576;-66
2021/09/27 06:00:30;;;;;;;6.23;3.90;;;;;;;;;;5106554;28;20248;-67
2021/09/27 06:03:11;;;;;;;6.53;4.03;;;;;;;;;;5106970;28;20201;-68
2021/09/27 06:05:43;;;;;;;5.07;3.50;;;;;;;;;;5105040;28;20302;-67
2021/09/27 06:08:14;;;;;;;7.03;4.20;;;;;;;;;;5108140;28;20289;-68
2021/09/27 06:10:46;;;;;;;4.80;4.00;;;;;;;;;;5113048;27;20243;-67
2021/09/27 06:13:20;;;;;;;5.37;4.20;;;;;;;;;;5120427;27;20284;-66
2021/09/27 06:15:50;;;;;;;6.73;4.50;;;;;;;;;;5122799;27;20307;-67
2021/09/27 06:18:26;;;;;;;7.67;4.43;;;;;;;;;;5139029;27;20236;-67
2021/09/27 06:20:59;;;;;;;6.27;4.07;;;;;;;;;;5139121;27;20200;-67
2021/09/27 06:23:37;;;;;;;4.83;4.33;;;;;;;;;;5136694;27;20291;-67
2021/09/27 06:26:08;;;;;;;5.83;4.57;;;;;;;;;;5118464;28;20228;-67
2021/09/27 06:28:40;;;;;;;5.33;4.33;;;;;;;;;;5118703;28;20240;-66
2021/09/27 06:31:09;;;;;;;6.77;5.07;;;;;;;;;;5118366;28;20240;-67
2021/09/27 06:33:40;;;;;;;11.57;5.53;;;;;;;;;;5118426;28;20215;-67
2021/09/27 06:36:11;;;;;;;7.70;5.53;;;;;;;;;;5118268;28;20684;-67
2021/09/27 06:38:40;;;;;;;10.50;5.47;;;;;;;;;;5118284;28;20292;-67
2021/09/27 06:41:10;;;;;;;9.67;5.50;;;;;;;;;;5118062;28;20235;-67
2021/09/27 06:43:39;;;;;;;12.47;5.63;;;;;;;;;;5118065;28;20255;-67
2021/09/27 06:46:07;;;;;;;7.53;4.83;;;;;;;;;;5117804;28;20220;-68
2021/09/27 06:48:35;;;;;;;7.90;5.20;;;;;;;;;;5118249;28;20204;-67
2021/09/27 06:51:03;;;;;;;9.20;4.90;;;;;;;;;;5118147;28;20204;-67
2021/09/27 06:53:31;;;;;;;7.30;4.93;;;;;;;;;;5117645;28;20258;-67
2021/09/27 06:56:00;;;;;;;10.17;4.73;;;;;;;;;;5118126;28;20296;-67
2021/09/27 06:58:30;;;;;;;5.73;4.97;;;;;;;;;;5117852;28;20640;-67
2021/09/27 07:00:58;;;;;;;6.43;5.10;;;;;;;;;;5112413;27;20658;-66
2021/09/27 07:03:29;;;;;;;7.07;4.33;;;;;;;;;;5129237;27;20204;-65
2021/09/27 07:05:58;;;;;;;7.90;5.00;;;;;;;;;;5138267;27;20342;-66
2021/09/27 07:08:26;;;;;;;7.47;4.80;;;;;;;;;;5137834;27;20290;-66
2021/09/27 07:10:54;;;;;;;6.67;4.93;;;;;;;;;;5138601;27;20204;-65
2021/09/27 07:13:23;;;;;;;9.93;4.63;;;;;;;;;;5138401;27;20207;-66
2021/09/27 07:15:52;;;;;;;10.93;5.40;;;;;;;;;;5129350;27;20632;-66
2021/09/27 07:18:20;;;;;;;8.30;5.87;;;;;;;;;;5120830;28;20208;-66
2021/09/27 07:20:48;;;;;;;8.40;5.70;;;;;;;;;;5131629;27;20646;-66
2021/09/27 07:23:16;;;;;;;7.73;5.20;;;;;;;;;;5132258;28;20267;-72
2021/09/27 07:25:45;;;;;;;24.50;13.77;;;;;;;;;;5123837;27;20745;-72
2021/09/27 07:28:13;;;;;;;10.37;6.03;;;;;;;;;;5121860;27;20229;-72
2021/09/27 07:30:41;;;;;;;9.60;6.07;;;;;;;;;;5142744;27;20200;-70
2021/09/27 07:33:11;;;;;;;6.57;5.13;;;;;;;;;;5142505;27;20277;-70
2021/09/27 07:35:40;;;;;;;7.23;5.70;;;;;;;;;;5142191;27;20235;-63
2021/09/27 07:38:08;;;;;;;9.90;6.40;;;;;;;;;;5142216;27;20273;-63
2021/09/27 07:40:38;;;;;;;10.80;5.73;;;;;;;;;;5142110;27;20220;-63
2021/09/27 07:43:06;;;;;;;7.33;5.87;;;;;;;;;;5141361;27;20208;-63
2021/09/27 07:45:36;;;;;;;9.00;6.70;;;;;;;;;;5108945;28;20228;-64
2021/09/27 07:48:05;;;;;;;15.13;5.83;;;;;;;;;;5121551;28;20216;-63
2021/09/27 07:50:35;;;;;;;11.37;6.80;;;;;;;;;;5121780;28;20262;-63
2021/09/27 07:53:03;;;;;;;11.07;6.27;;;;;;;;;;5121241;28;20281;-64
2021/09/27 07:55:31;;;;;;;9.43;6.43;;;;;;;;;;5121671;27;20264;-64
2021/09/27 07:57:59;;;;;;;15.37;6.17;;;;;;;;;;5121329;28;20239;-63
2021/09/27 08:00:28;;;;;;;14.47;7.13;;;;;;;;;;5115389;28;20263;-64
2021/09/27 08:02:56;;;;;;;8.00;6.60;;;;;;;;;;5134772;27;20208;-63
2021/09/27 08:05:29;;;;;;;9.53;6.33;;;;;;;;;;5141690;27;20259;-64
2021/09/27 08:07:58;;;;;;;10.97;7.33;;;;;;;;;;5117926;27;20312;-63
2021/09/27 08:10:27;;;;;;;11.17;6.10;;;;;;;;;;5108622;28;20275;-63
2021/09/27 08:12:55;;;;;;;13.73;6.03;;;;;;;;;;5114705;28;20231;-63
2021/09/27 08:15:25;;;;;;;10.83;6.80;;;;;;;;;;5116587;28;20257;-63
2021/09/27 08:17:54;;;;;;;8.83;6.37;;;;;;;;;;5141095;27;20247;-63
2021/09/27 08:20:25;;;;;;;12.40;6.63;;;;;;;;;;5141568;27;20311;-64
2021/09/27 08:22:54;;;;;;;12.80;6.90;;;;;;;;;;5127235;27;20262;-64
2021/09/27 08:25:24;;;;;;;12.40;6.60;;;;;;;;;;5109790;28;20221;-63
2021/09/27 08:27:52;;;;;;;10.33;6.63;;;;;;;;;;5107905;28;20312;-63
2021/09/27 08:30:22;;;;;;;8.00;5.63;;;;;;;;;;5120575;28;20233;-64
2021/09/27 08:32:50;;;;;;;14.23;6.60;;;;;;;;;;5120471;28;20204;-64
2021/09/27 08:35:19;;;;;;;13.10;6.50;;;;;;;;;;5114478;28;20256;-63
2021/09/27 08:37:47;;;;;;;10.67;7.23;;;;;;;;;;5106797;28;20233;-64
2021/09/27 08:40:23;;;;;;;12.97;6.50;;;;;;;;;;5109063;27;20751;-63
2021/09/27 08:42:53;;;;;;;14.27;6.63;;;;;;;;;;5108478;28;20280;-61
2021/09/27 08:45:23;;;;;;;10.00;5.73;;;;;;;;;;5101830;28;20304;-63
2021/09/27 08:47:56;;;;;;;11.60;6.40;;;;;;;;;;5107580;28;20236;-66
2021/09/27 08:53:48;;;;;;;15.27;8.07;;;;;;;;;;5106989;28;20647;-63
2021/09/27 08:56:19;;;;;;;14.00;7.37;;;;;;;;;;5105549;28;20265;-63
2021/09/27 08:58:52;;;;;;;12.77;7.10;;;;;;;;;;5107546;28;20193;-63
2021/09/27 09:01:22;;;;;;;11.93;7.70;;;;;;;;;;5105548;28;20235;-62
2021/09/27 09:03:54;;;;;;;14.23;7.80;;;;;;;;;;5107278;28;20233;-64
2021/09/27 09:06:25;;;;;;;16.87;7.83;;;;;;;;;;5105903;28;20708;-62
2021/09/27 09:08:56;;;;;;;15.40;7.47;;;;;;;;;;5108196;27;20201;-63
2021/09/27 09:11:29;;;;;;;13.90;7.90;;;;;;;;;;5105757;28;20220;-63
2021/09/27 09:14:08;;;;;;;15.60;7.43;;;;;;;;;;5119652;28;20267;-63
2021/09/27 09:16:38;;;;;;;16.37;7.13;;;;;;;;;;5115289;28;20253;-63
2021/09/27 09:19:09;;;;;;;12.47;6.03;;;;;;;;;;5119985;28;20211;-63
2021/09/27 09:21:39;;;;;;;12.47;5.70;;;;;;;;;;5119657;28;20228;-63
2021/09/27 09:24:08;;;;;;;7.90;5.23;;;;;;;;;;5119572;27;20308;-63
2021/09/27 09:26:37;;;;;;;8.70;4.77;;;;;;;;;;5119729;28;20211;-63
2021/09/27 09:29:07;;;;;;;8.03;4.90;;;;;;;;;;5119839;28;20209;-62
2021/09/27 09:31:36;;;;;;;7.67;5.03;;;;;;;;;;5119519;28;20197;-62
2021/09/27 09:34:05;;;;;;;11.23;5.07;;;;;;;;;;5113519;28;20255;-61
2021/09/27 09:36:39;;;;;;;10.37;5.17;;;;;;;;;;5100852;28;20204;-61
2021/09/27 09:39:13;;;;;;;7.33;5.13;;;;;;;;;;5107558;28;20197;-61
2021/09/27 09:41:46;;;;;;;8.37;4.27;;;;;;;;;;5106942;28;20610;-62
2021/09/27 09:44:24;;;;;;;8.00;4.70;;;;;;;;;;5106651;28;20527;-62
2021/09/27 09:47:00;;;;;;;7.37;5.13;;;;;;;;;;5106443;28;20584;-62
2021/09/27 09:49:30;;;;;;;6.50;4.63;;;;;;;;;;5105697;28;20705;-62
2021/09/27 09:51:59;;;;;;;10.30;4.53;;;;;;;;;;5107057;28;20252;-62
2021/09/27 09:54:29;;;;;;;8.80;4.80;;;;;;;;;;5106506;28;20223;-63
2021/09/27 09:57:03;;;;;;;5.63;4.17;;;;;;;;;;5106716;28;20300;-62
2021/09/27 09:59:34;;;;;;;6.73;3.93;;;;;;;;;;5104280;28;20193;-64
2021/09/27 10:02:04;;;;;;;7.13;4.03;;;;;;;;;;5105937;28;20268;-62
2021/09/27 10:04:36;;;;;;;7.63;3.90;;;;;;;;;;5105013;28;20225;-60
2021/09/27 10:07:10;;;;;;;5.97;3.70;;;;;;;;;;5103505;28;20230;-62
2021/09/27 10:09:41;;;;;;;6.17;4.23;;;;;;;;;;5106561;28;20213;-64
2021/09/27 10:12:11;;;;;;;9.03;5.17;;;;;;;;;;5106408;28;20197;-65
2021/09/27 10:14:43;;;;;;;6.80;4.33;;;;;;;;;;5104770;28;20268;-63
2021/09/27 10:17:25;;;;;;;5.63;4.23;;;;;;;;;;5110227;27;20290;-66
2021/09/27 10:19:55;;;;;;;8.13;4.43;;;;;;;;;;5139131;27;20213;-65
2021/09/27 10:22:24;;;;;;;7.40;4.70;;;;;;;;;;5138700;27;20310;-66
2021/09/27 10:24:54;;;;;;;7.53;4.27;;;;;;;;;;5110586;27;20232;-67
2021/09/27 10:27:25;;;;;;;7.13;4.00;;;;;;;;;;5105599;28;20270;-67
2021/09/27 10:29:56;;;;;;;6.40;4.13;;;;;;;;;;5111657;28;20213;-66
2021/09/27 10:32:28;;;;;;;5.93;4.77;;;;;;;;;;5118489;28;20201;-66
2021/09/27 10:34:58;;;;;;;6.33;4.27;;;;;;;;;;5104083;28;20228;-66
2021/09/27 10:37:27;;;;;;;6.07;3.80;;;;;;;;;;5117986;28;20592;-72
2021/09/27 10:39:56;;;;;;;4.87;3.63;;;;;;;;;;5118226;28;20218;-64
2021/09/27 10:42:29;;;;;;;4.70;3.77;;;;;;;;;;5118277;28;20231;-64
2021/09/27 10:44:59;;;;;;;5.77;4.30;;;;;;;;;;5117986;28;20229;-63
2021/09/27 10:47:29;;;;;;;4.60;3.57;;;;;;;;;;5118005;28;20212;-64
2021/09/27 10:49:59;;;;;;;5.43;4.07;;;;;;;;;;5117676;28;20214;-64
2021/09/27 10:52:36;;;;;;;7.23;4.27;;;;;;;;;;5118120;28;20204;-63
2021/09/27 10:55:11;;;;;;;4.97;4.20;;;;;;;;;;5118201;28;20231;-63
2021/09/27 10:57:42;;;;;;;9.23;5.60;;;;;;;;;;5117682;28;20575;-63
2021/09/27 11:00:18;;;;;;;8.30;4.83;;;;;;;;;;5117568;28;20249;-63
2021/09/27 11:02:50;;;;;;;7.30;4.90;;;;;;;;;;5117870;28;20231;-64
2021/09/27 11:05:28;;;;;;;9.33;5.20;;;;;;;;;;5117586;28;20318;-64
2021/09/27 11:07:56;;;;;;;5.20;4.63;;;;;;;;;;5116548;28;20734;-63
2021/09/27 11:10:29;;;;;;;6.83;5.57;;;;;;;;;;5117112;28;20247;-64
2021/09/27 11:12:57;;;;;;;8.13;5.60;;;;;;;;;;5117644;28;20203;-63
2021/09/27 11:15:29;;;;;;;6.63;4.73;;;;;;;;;;5117328;28;20224;-63
2021/09/27 11:18:04;;;;;;;8.93;5.73;;;;;;;;;;5117729;28;20212;-64
2021/09/27 11:20:46;;;;;;;7.73;5.60;;;;;;;;;;5118018;28;20210;-63
2021/09/27 11:23:23;;;;;;;6.37;5.07;;;;;;;;;;5117201;28;20697;-63
2021/09/27 11:26:04;;;;;;;5.83;5.20;;;;;;;;;;5117853;28;20221;-63
2021/09/27 11:28:45;;;;;;;8.83;5.77;;;;;;;;;;5117595;28;20585;-63
2021/09/27 11:31:34;;;;;;;7.83;5.83;;;;;;;;;;5117480;28;20239;-62
2021/09/27 11:34:26;;;;;;;6.37;5.73;;;;;;;;;;5109546;28;20217;-63
2021/09/27 11:37:07;;;;;;;7.70;5.20;;;;;;;;;;5107277;28;20678;-63
2021/09/27 11:39:40;;;;;;;7.40;5.50;;;;;;;;;;5117741;28;20203;-62
2021/09/27 11:42:12;;;;;;;7.10;5.50;;;;;;;;;;5117509;28;20703;-63
2021/09/27 11:44:52;;;;;;;7.53;5.50;;;;;;;;;;5117723;28;20311;-62
2021/09/27 11:47:31;;;;;;;8.83;5.93;;;;;;;;;;5117489;28;20212;-63
2021/09/27 11:50:04;;;;;;;6.07;5.47;;;;;;;;;;5117795;28;20210;-63
2021/09/27 11:52:41;;;;;;;7.17;5.40;;;;;;;;;;5117439;28;20280;-63
2021/09/27 11:55:10;;;;;;;9.17;5.83;;;;;;;;;;5117273;28;20685;-63
2021/09/27 11:57:40;;;;;;;7.30;5.50;;;;;;;;;;5117596;28;20215;-63
2021/09/27 12:00:11;;;;;;;6.07;5.23;;;;;;;;;;5117282;28;20211;-63
2021/09/27 12:02:49;;;;;;;6.00;4.97;;;;;;;;;;5117371;28;20322;-65
2021/09/27 12:05:24;;;;;;;7.23;5.00;;;;;;;;;;5117371;28;20224;-65
2021/09/27 12:07:56;;;;;;;7.97;5.77;;;;;;;;;;5117077;28;20268;-64
2021/09/27 12:10:26;;;;;;;7.90;5.70;;;;;;;;;;5117297;28;20211;-64
2021/09/27 12:12:55;;;;;;;5.93;5.23;;;;;;;;;;5119085;28;20215;-63
2021/09/27 12:15:25;;;;;;;5.20;4.70;;;;;;;;;;5117385;28;20268;-63
2021/09/27 12:17:54;;;;;;;6.17;4.63;;;;;;;;;;5135297;27;20218;-63
2021/09/27 12:20:24;;;;;;;6.23;5.20;;;;;;;;;;5141784;27;20202;-62
2021/09/27 12:22:53;;;;;;;9.20;5.47;;;;;;;;;;5141302;27;20315;-63
2021/09/27 12:25:22;;;;;;;14.87;7.27;;;;;;;;;;5128873;27;20308;-63
2021/09/27 12:27:53;;;;;;;12.07;6.93;;;;;;;;;;5121006;28;20218;-63
2021/09/27 12:30:21;;;;;;;6.77;5.23;;;;;;;;;;5120909;28;20668;-63
2021/09/27 12:32:51;;;;;;;8.33;5.83;;;;;;;;;;5120586;28;20284;-63
2021/09/27 12:35:23;;;;;;;8.10;5.40;;;;;;;;;;5111424;27;20229;-63
2021/09/27 12:37:52;;;;;;;5.30;4.80;;;;;;;;;;5119677;27;20205;-62
2021/09/27 12:40:21;;;;;;;6.30;4.63;;;;;;;;;;5119789;28;20284;-64
2021/09/27 12:42:50;;;;;;;9.03;5.17;;;;;;;;;;5120203;28;20234;-63
2021/09/27 12:45:22;;;;;;;8.80;5.13;;;;;;;;;;5120483;28;20223;-63
2021/09/27 12:47:50;;;;;;;10.97;5.67;;;;;;;;;;5120260;28;20632;-63
2021/09/27 12:50:23;;;;;;;6.43;4.87;;;;;;;;;;5120234;27;20208;-64
2021/09/27 12:52:52;;;;;;;13.83;8.27;;;;;;;;;;5119626;27;20205;-63
2021/09/27 12:55:22;;;;;;;7.10;5.67;;;;;;;;;;5119232;28;20227;-63
2021/09/27 12:57:52;;;;;;;7.87;5.17;;;;;;;;;;5120325;28;20208;-63
2021/09/27 13:00:23;;;;;;;6.57;5.40;;;;;;;;;;5120172;28;20759;-63
2021/09/27 13:02:51;;;;;;;12.60;5.80;;;;;;;;;;5120362;27;20234;-63
2021/09/27 13:05:22;;;;;;;20.67;7.60;;;;;;;;;;5120233;28;20231;-63
2021/09/27 13:07:51;;;;;;;19.03;7.63;;;;;;;;;;5120025;28;20236;-63
2021/09/27 13:10:23;;;;;;;22.60;7.80;;;;;;;;;;5120272;28;20207;-63
2021/09/27 13:12:59;;;;;;;11.50;6.03;;;;;;;;;;5120089;28;20566;-63
2021/09/27 13:15:29;;;;;;;7.67;4.93;;;;;;;;;;5120356;28;20235;-63
2021/09/27 13:18:00;;;;;;;6.80;4.23;;;;;;;;;;5120218;28;20201;-63
2021/09/27 13:20:31;;;;;;;4.80;4.23;;;;;;;;;;5120398;28;20209;-62
2021/09/27 13:23:00;;;;;;;9.30;4.60;;;;;;;;;;5119296;27;20224;-62
2021/09/27 13:25:30;;;;;;;5.10;4.17;;;;;;;;;;5119917;28;20230;-63
2021/09/27 13:28:01;;;;;;;5.50;3.73;;;;;;;;;;5120065;28;20200;-63
2021/09/27 13:30:32;;;;;;;3.60;3.30;;;;;;;;;;5120187;28;20209;-62
2021/09/27 13:33:02;;;;;;;5.40;3.20;;;;;;;;;;5119945;28;20202;-63
2021/09/27 13:35:35;;;;;;;4.67;3.40;;;;;;;;;;5104589;28;20222;-64
2021/09/27 13:38:06;;;;;;;6.20;3.00;;;;;;;;;;5118410;28;20287;-63
2021/09/27 13:40:36;;;;;;;5.30;3.40;;;;;;;;;;5119592;28;20200;-65
2021/09/27 13:43:06;;;;;;;5.10;3.50;;;;;;;;;;5118627;28;20239;-65
2021/09/27 13:45:36;;;;;;;3.17;2.87;;;;;;;;;;5118239;28;20228;-64
2021/09/27 13:48:05;;;;;;;3.63;3.20;;;;;;;;;;5119050;28;20210;-64
2021/09/27 13:50:35;;;;;;;3.70;2.80;;;;;;;;;;5119540;28;20218;-64
2021/09/27 13:53:04;;;;;;;3.23;2.93;;;;;;;;;;5118697;27;20207;-65
2021/09/27 13:55:32;;;;;;;2.87;2.67;;;;;;;;;;5117911;28;20229;-65
2021/09/27 13:58:00;;;;;;;3.27;2.60;;;;;;;;;;5118112;28;20202;-65
2021/09/27 14:00:29;;;;;;;2.80;2.40;;;;;;;;;;5118553;28;20234;-65
2021/09/27 14:02:57;;;;;;;3.67;2.47;;;;;;;;;;5117996;28;20230;-65
2021/09/27 14:05:25;;;;;;;3.57;2.50;;;;;;;;;;5116585;27;20229;-65
2021/09/27 14:07:54;;;;;;;2.83;2.63;;;;;;;;;;5112551;28;20316;-62
2021/09/27 14:10:23;;;;;;;3.23;2.40;;;;;;;;;;5119023;28;20572;-64
2021/09/27 14:13:05;;;;;;;2.50;2.30;;;;;;;;;;5118876;28;20227;-64
2021/09/27 14:15:33;;;;;;;3.17;2.80;;;;;;;;;;5119197;28;20230;-64
2021/09/27 14:18:01;;;;;;;3.17;2.40;;;;;;;;;;5118651;28;20568;-64
2021/09/27 14:20:29;;;;;;;5.80;2.90;;;;;;;;;;5118910;27;20207;-64
2021/09/27 14:22:59;;;;;;;5.20;2.97;;;;;;;;;;5118573;28;20230;-64
2021/09/27 14:25:28;;;;;;;2.90;2.70;;;;;;;;;;5118684;28;20219;-64
2021/09/27 14:27:56;;;;;;;4.33;3.33;;;;;;;;;;5118598;28;20207;-64
2021/09/27 14:30:24;;;;;;;3.03;2.67;;;;;;;;;;5118846;28;20701;-64
2021/09/27 14:32:53;;;;;;;3.43;3.00;;;;;;;;;;5118537;28;20206;-64
2021/09/27 14:35:21;;;;;;;5.20;2.80;;;;;;;;;;5114395;27;20223;-64
2021/09/27 14:37:49;;;;;;;3.57;2.83;;;;;;;;;;5116584;28;20233;-64
2021/09/27 14:40:20;;;;;;;3.93;2.60;;;;;;;;;;5117050;28;20580;-64
2021/09/27 14:42:49;;;;;;;3.63;2.57;;;;;;;;;;5118237;28;20225;-64
2021/09/27 14:45:17;;;;;;;2.70;2.47;;;;;;;;;;5118531;28;20234;-64
2021/09/27 14:47:46;;;;;;;3.70;3.40;;;;;;;;;;5118488;28;20215;-64
2021/09/27 14:50:16;;;;;;;4.87;2.57;;;;;;;;;;5118361;28;20206;-64
2021/09/27 14:52:44;;;;;;;5.70;3.20;;;;;;;;;;5117256;28;20560;-64
2021/09/27 14:55:13;;;;;;;2.97;2.67;;;;;;;;;;5117560;28;20307;-64
2021/09/27 14:57:43;;;;;;;3.67;2.83;;;;;;;;;;5118414;28;20206;-64
2021/09/27 15:00:13;;;;;;;3.37;2.50;;;;;;;;;;5118359;28;20255;-64
2021/09/27 15:02:41;;;;;;;3.17;2.87;;;;;;;;;;5117163;28;20285;-64
2021/09/27 15:05:10;;;;;;;2.73;2.53;;;;;;;;;;5117645;28;20231;-64
2021/09/27 15:07:38;;;;;;;3.73;3.40;;;;;;;;;;5120628;28;20256;-64
2021/09/27 15:10:08;;;;;;;3.13;2.30;;;;;;;;;;5138538;27;20308;-64